Terminal Aerodrome Forecast
Issued by NWS

Home | Current Version | Previous Version | Text Only | Print | Product List | Glossary On
Versions: 1 2 3 4 5 6 7 8 9 10 11 12 13 14
000
FTUS45 KREV 191100
TAFMMH
TAF
KMMH 191120Z 1912/2012 VRB03KT P6SM BKN150
     FM191500 12007KT P6SM SCT150
     FM192100 28010G20KT P6SM VCSH SCT060 BKN100
     FM200300 VRB03KT P6SM SKC
      AMD NOT SKED 1912/1914=

USA.gov is the U.S. government's official web portal to all federal, state and local government web resources and services.